Time;durP1;ratioP1;P1;durP2;ratioP2;P2;SDS_P1;SDS_P2;PMS_P1;PMS_P2;Temp;Humidity;BMP_temperature;BMP_pressure;BME280_temperature;BME280_humidity;BME280_pressure;Samples;Min_cycle;Max_cycle;Signal;HPM_P1;HPM_P2
2022/03/25 00:00:30;;;;;;;42.25;29.58;;;;;;;5.97;59.78;102164.50;4957194;28;20044;-70
2022/03/25 00:02:56;;;;;;;37.40;28.83;;;;;;;6.00;59.89;102159.97;4956893;28;21037;-69
2022/03/25 00:05:21;;;;;;;41.55;29.30;;;;;;;5.80;60.53;102157.41;4973654;28;20422;-70
2022/03/25 00:07:47;;;;;;;38.63;31.05;;;;;;;5.61;61.16;102168.75;4975159;28;20089;-70
2022/03/25 00:10:12;;;;;;;38.63;29.98;;;;;;;5.63;61.12;102171.28;4946654;28;20183;-70
2022/03/25 00:12:37;;;;;;;37.92;30.27;;;;;;;5.61;61.58;102167.88;4951553;28;20018;-70
2022/03/25 00:15:03;;;;;;;38.75;29.73;;;;;;;5.57;61.23;102166.31;4957159;28;20340;-69
2022/03/25 00:17:28;;;;;;;39.03;30.15;;;;;;;5.53;61.33;102164.72;4957673;28;20088;-68
2022/03/25 00:19:54;;;;;;;40.00;30.50;;;;;;;5.52;61.65;102168.31;4983720;28;20139;-68
2022/03/25 00:22:19;;;;;;;40.42;29.30;;;;;;;5.52;61.73;102168.31;4972010;28;20059;-69
2022/03/25 00:24:45;;;;;;;38.10;28.70;;;;;;;5.38;62.07;102166.28;4957943;28;20040;-69
2022/03/25 00:27:11;;;;;;;37.25;28.92;;;;;;;5.38;62.25;102171.53;4960561;28;20431;-68
2022/03/25 00:29:36;;;;;;;35.60;27.98;;;;;;;5.39;61.78;102174.09;4954340;28;20038;-69
2022/03/25 00:32:02;;;;;;;38.30;28.70;;;;;;;5.26;62.30;102168.53;4952649;28;20506;-68
2022/03/25 00:34:28;;;;;;;39.60;28.75;;;;;;;5.21;62.70;102172.28;4953611;28;20021;-69
2022/03/25 00:36:54;;;;;;;36.95;28.58;;;;;;;5.11;62.69;102164.78;4967687;28;20022;-68
2022/03/25 00:39:19;;;;;;;37.05;28.67;;;;;;;5.08;63.17;102164.09;4969107;28;20801;-70
2022/03/25 00:41:44;;;;;;;37.05;28.25;;;;;;;4.97;63.43;102167.16;4969399;28;20006;-68
2022/03/25 00:44:10;;;;;;;37.22;28.63;;;;;;;5.06;63.51;102165.91;4969159;28;20018;-68
2022/03/25 00:46:35;;;;;;;36.80;28.38;;;;;;;4.95;63.48;102163.72;4955155;28;20079;-68
2022/03/25 00:49:00;;;;;;;36.22;28.58;;;;;;;4.97;63.58;102168.00;4955378;28;20014;-70
2022/03/25 00:51:26;;;;;;;38.72;28.65;;;;;;;4.84;63.74;102171.19;4936373;28;20258;-69
2022/03/25 00:53:52;;;;;;;37.80;27.83;;;;;;;4.82;63.79;102159.03;4956422;28;20129;-68
2022/03/25 00:56:17;;;;;;;39.00;28.48;;;;;;;5.15;62.66;102163.75;4964887;28;20552;-68
2022/03/25 00:58:42;;;;;;;34.55;28.13;;;;;;;5.35;62.48;102163.81;4990234;28;20605;-69
2022/03/25 01:01:08;;;;;;;37.67;28.55;;;;;;;5.13;62.57;102160.34;4971670;28;20113;-68
2022/03/25 01:03:35;;;;;;;38.22;29.13;;;;;;;5.26;62.45;102157.16;4967185;28;20141;-68
2022/03/25 01:06:00;;;;;;;36.72;28.55;;;;;;;5.32;61.63;102162.16;4938650;28;20037;-70
2022/03/25 01:08:27;;;;;;;35.05;28.20;;;;;;;5.16;62.22;102149.72;4953290;28;20734;-70
2022/03/25 01:10:52;;;;;;;37.38;29.40;;;;;;;5.06;62.86;102156.28;4968916;28;20025;-70
2022/03/25 01:13:18;;;;;;;41.10;29.35;;;;;;;5.08;62.73;102158.84;4937634;28;20058;-69
2022/03/25 01:15:43;;;;;;;36.67;28.58;;;;;;;5.00;62.97;102153.91;4934042;28;20022;-70
2022/03/25 01:18:09;;;;;;;39.60;30.02;;;;;;;4.85;63.29;102157.19;4951868;28;20026;-70
2022/03/25 01:20:34;;;;;;;36.92;28.40;;;;;;;4.77;63.58;102160.97;4954588;28;20205;-69
2022/03/25 01:22:59;;;;;;;37.03;28.50;;;;;;;5.00;62.95;102161.78;4941871;28;20019;-69
2022/03/25 01:25:25;;;;;;;39.17;28.83;;;;;;;5.18;62.70;102159.28;4954152;28;20758;-68
2022/03/25 01:27:51;;;;;;;36.95;28.90;;;;;;;5.08;62.94;102159.69;4944329;28;20011;-68
2022/03/25 01:30:16;;;;;;;40.25;28.73;;;;;;;4.87;63.30;102157.97;4937234;28;20026;-70
2022/03/25 01:32:41;;;;;;;38.67;29.77;;;;;;;4.61;64.32;102160.78;4936059;28;20037;-69
2022/03/25 01:35:09;;;;;;;43.53;29.10;;;;;;;4.59;64.43;102161.75;4974319;28;20021;-69
2022/03/25 01:37:34;;;;;;;40.22;29.25;;;;;;;4.52;64.50;102148.03;4952734;28;20022;-69
2022/03/25 01:40:00;;;;;;;38.55;28.67;;;;;;;4.45;65.02;102155.28;4939835;28;20036;-69
2022/03/25 01:42:29;;;;;;;39.42;28.95;;;;;;;4.40;65.58;102145.91;4957799;28;20021;-68
2022/03/25 01:44:55;;;;;;;38.67;29.23;;;;;;;4.39;65.28;102141.59;4977111;28;20014;-69
2022/03/25 01:47:20;;;;;;;38.53;29.67;;;;;;;4.36;65.43;102146.94;4992604;28;20515;-69
2022/03/25 01:49:45;;;;;;;39.15;31.38;;;;;;;4.33;65.11;102145.31;4944069;28;20038;-69
2022/03/25 01:52:11;;;;;;;38.15;29.30;;;;;;;4.33;65.39;102133.97;4966887;28;20021;-68
2022/03/25 01:54:37;;;;;;;40.75;30.73;;;;;;;4.23;65.62;102146.56;4951526;28;20019;-69
2022/03/25 01:57:06;;;;;;;40.33;30.70;;;;;;;4.21;65.36;102143.19;4949435;28;20121;-69
2022/03/25 01:59:32;;;;;;;37.88;30.20;;;;;;;4.22;65.57;102144.88;4933587;28;20023;-69
2022/03/25 02:01:58;;;;;;;44.55;31.05;;;;;;;4.18;65.69;102145.94;4960396;28;20075;-68
2022/03/25 02:04:23;;;;;;;39.67;30.15;;;;;;;4.32;65.57;102134.91;4944827;28;20041;-68
2022/03/25 02:06:49;;;;;;;36.78;28.75;;;;;;;4.55;64.69;102144.44;4940488;28;20002;-69
2022/03/25 02:09:14;;;;;;;38.35;28.73;;;;;;;4.38;65.26;102145.97;4971327;28;19998;-69
2022/03/25 02:11:40;;;;;;;45.88;29.42;;;;;;;4.27;65.68;102150.78;4969556;28;20010;-70
2022/03/25 02:14:06;;;;;;;38.67;30.02;;;;;;;4.20;65.81;102144.97;4922503;28;20011;-69
2022/03/25 02:16:42;;;;;;;37.63;28.98;;;;;;;4.18;65.77;102138.91;4967917;28;20030;-69
2022/03/25 02:19:10;;;;;;;39.58;30.23;;;;;;;4.08;66.41;102141.03;4955830;28;20315;-69
2022/03/25 02:21:40;;;;;;;38.85;29.20;;;;;;;3.98;66.50;102139.69;4956265;28;20102;-69
2022/03/25 02:24:06;;;;;;;40.33;29.63;;;;;;;3.89;67.07;102137.41;4954913;28;20014;-69
2022/03/25 02:26:32;;;;;;;40.10;30.48;;;;;;;3.85;67.25;102143.69;4954657;28;20497;-69
2022/03/25 02:28:59;;;;;;;38.92;30.00;;;;;;;3.89;67.37;102143.53;4955173;28;20022;-69
2022/03/25 02:31:24;;;;;;;42.72;30.85;;;;;;;4.15;66.58;102146.88;4953316;28;20024;-69
2022/03/25 02:33:51;;;;;;;40.95;29.92;;;;;;;4.27;66.28;102145.53;4971401;28;20043;-68
2022/03/25 02:36:17;;;;;;;39.38;29.95;;;;;;;4.16;66.43;102145.13;4957317;28;20248;-71
2022/03/25 02:38:42;;;;;;;36.65;29.17;;;;;;;4.12;66.53;102145.25;4973553;28;20703;-69
2022/03/25 02:41:07;;;;;;;36.67;29.25;;;;;;;4.32;65.95;102143.59;4971295;28;20516;-69
2022/03/25 02:43:33;;;;;;;38.47;29.38;;;;;;;4.35;65.37;102148.72;4952919;28;20018;-69
2022/03/25 02:45:58;;;;;;;37.72;28.92;;;;;;;4.32;65.64;102151.47;4969944;28;20025;-69
2022/03/25 02:48:23;;;;;;;41.67;29.13;;;;;;;4.34;65.41;102146.16;4970453;28;20014;-68
2022/03/25 02:50:49;;;;;;;39.05;30.13;;;;;;;4.08;65.96;102148.88;4956424;28;20038;-69
2022/03/25 02:53:15;;;;;;;38.03;29.70;;;;;;;3.95;66.75;102163.41;4960296;28;20022;-69
2022/03/25 02:55:41;;;;;;;41.28;29.98;;;;;;;3.83;67.07;102151.59;4959056;28;20266;-69
2022/03/25 02:58:06;;;;;;;42.65;31.45;;;;;;;3.81;67.23;102157.81;4939759;28;20234;-69
2022/03/25 03:00:32;;;;;;;39.72;30.13;;;;;;;3.76;67.31;102155.38;4967775;28;20529;-69
2022/03/25 03:03:00;;;;;;;38.42;30.77;;;;;;;3.67;67.95;102156.56;4913170;28;20027;-69
2022/03/25 03:05:26;;;;;;;38.22;29.90;;;;;;;3.51;68.50;102158.03;4949177;28;20336;-68
2022/03/25 03:07:52;;;;;;;42.10;31.30;;;;;;;3.57;68.36;102152.59;4947589;28;20033;-69
2022/03/25 03:10:17;;;;;;;41.67;31.13;;;;;;;3.58;68.32;102152.53;4953450;28;20031;-69
2022/03/25 03:12:42;;;;;;;43.30;30.08;;;;;;;3.49;68.75;102159.88;4936566;28;20021;-69
2022/03/25 03:15:08;;;;;;;42.90;30.27;;;;;;;3.71;68.19;102168.63;4938851;28;20925;-69
2022/03/25 03:17:34;;;;;;;43.63;31.13;;;;;;;3.57;68.35;102166.53;4922398;28;20130;-69
2022/03/25 03:20:00;;;;;;;39.30;29.80;;;;;;;3.44;68.95;102168.75;4952790;28;20033;-69
2022/03/25 03:22:25;;;;;;;41.22;30.05;;;;;;;3.36;69.15;102162.91;4952004;28;20527;-69
2022/03/25 03:24:51;;;;;;;43.20;30.95;;;;;;;3.34;69.42;102162.13;4958926;28;20011;-69
2022/03/25 03:27:16;;;;;;;42.15;30.88;;;;;;;3.32;69.17;102166.56;4952781;28;20779;-69
2022/03/25 03:29:42;;;;;;;40.90;32.38;;;;;;;3.28;69.66;102166.72;4935710;28;20038;-69
2022/03/25 03:32:08;;;;;;;43.75;32.00;;;;;;;3.34;69.36;102161.25;4934724;28;20493;-68
2022/03/25 03:34:33;;;;;;;45.05;33.13;;;;;;;3.27;69.50;102158.00;4921652;28;20126;-68
2022/03/25 03:36:58;;;;;;;40.92;31.42;;;;;;;3.31;69.59;102167.44;4951851;28;20080;-70
2022/03/25 03:39:24;;;;;;;41.47;32.65;;;;;;;3.18;69.70;102163.56;4955543;28;20988;-69
2022/03/25 03:41:49;;;;;;;44.45;32.63;;;;;;;3.23;69.67;102161.66;4950731;28;20581;-69
2022/03/25 03:44:14;;;;;;;47.53;32.28;;;;;;;3.19;69.66;102163.53;4935564;28;20018;-69
2022/03/25 03:46:40;;;;;;;43.67;32.78;;;;;;;3.28;69.62;102164.09;4951645;28;20030;-69
2022/03/25 03:49:05;;;;;;;44.40;33.80;;;;;;;3.17;69.86;102162.69;4936935;28;20025;-69
2022/03/25 03:51:31;;;;;;;45.45;33.35;;;;;;;3.16;69.95;102168.00;4935853;28;20030;-70
2022/03/25 03:53:57;;;;;;;42.05;32.17;;;;;;;3.03;70.04;102168.44;4919286;28;20129;-69
2022/03/25 03:56:22;;;;;;;44.53;32.78;;;;;;;2.99;70.56;102169.44;4953714;28;20040;-69
2022/03/25 03:58:48;;;;;;;42.40;32.05;;;;;;;3.02;70.62;102158.88;4953568;28;20041;-69
2022/03/25 04:01:13;;;;;;;47.08;31.73;;;;;;;3.07;70.79;102162.19;4950205;28;20717;-69
2022/03/25 04:03:39;;;;;;;39.35;30.70;;;;;;;3.02;70.71;102164.09;4953391;28;20039;-69
2022/03/25 04:06:05;;;;;;;41.72;32.58;;;;;;;2.99;70.65;102156.38;4952746;28;20484;-68
2022/03/25 04:08:31;;;;;;;44.60;32.25;;;;;;;3.07;70.90;102167.44;4950976;28;20015;-70
2022/03/25 04:10:56;;;;;;;40.55;30.27;;;;;;;3.42;69.68;102173.16;4951540;28;20037;-69
2022/03/25 04:13:21;;;;;;;45.92;32.75;;;;;;;3.16;70.24;102171.47;4937324;28;20068;-70
2022/03/25 04:15:47;;;;;;;45.22;32.05;;;;;;;3.02;70.67;102168.50;4953893;28;20128;-70
2022/03/25 04:18:12;;;;;;;42.45;31.27;;;;;;;2.92;70.85;102173.19;4952576;28;20772;-68
2022/03/25 04:20:38;;;;;;;39.75;30.70;;;;;;;2.95;70.76;102170.47;4950561;28;20722;-68
2022/03/25 04:23:03;;;;;;;42.05;31.27;;;;;;;2.91;71.29;102167.06;4933719;28;20010;-69
2022/03/25 04:25:28;;;;;;;42.83;31.23;;;;;;;3.24;70.04;102171.19;4950773;28;20018;-69
2022/03/25 04:27:55;;;;;;;40.83;30.75;;;;;;;3.17;70.15;102185.41;4953572;28;20019;-69
2022/03/25 04:30:25;;;;;;;41.95;30.88;;;;;;;3.01;70.52;102178.09;4935377;28;20710;-69
2022/03/25 04:32:51;;;;;;;43.25;31.67;;;;;;;2.88;70.87;102176.81;4954652;28;20018;-69
2022/03/25 04:35:17;;;;;;;40.15;30.45;;;;;;;2.91;70.78;102179.31;4951775;28;20497;-69
2022/03/25 04:37:42;;;;;;;39.42;30.65;;;;;;;2.75;71.72;102179.81;4951661;28;20018;-69
2022/03/25 04:40:09;;;;;;;40.55;29.98;;;;;;;2.80;71.48;102173.59;4953164;28;20105;-69
2022/03/25 04:42:34;;;;;;;41.55;29.83;;;;;;;2.73;71.60;102173.78;4955799;28;20022;-69
2022/03/25 04:45:00;;;;;;;39.42;29.67;;;;;;;2.72;72.06;102174.69;4971503;28;20466;-69
2022/03/25 04:47:25;;;;;;;41.05;28.70;;;;;;;2.84;71.65;102164.75;4953554;28;20013;-69
2022/03/25 04:49:51;;;;;;;39.75;29.65;;;;;;;2.80;71.63;102173.59;4972573;28;20409;-69
2022/03/25 04:52:16;;;;;;;43.30;30.42;;;;;;;2.81;71.63;102178.75;4972675;28;20037;-69
2022/03/25 04:54:41;;;;;;;40.30;30.50;;;;;;;2.68;72.06;102180.94;4971285;28;20103;-69
2022/03/25 04:57:07;;;;;;;40.35;30.95;;;;;;;2.84;71.35;102176.03;4989151;28;20024;-71
2022/03/25 04:59:32;;;;;;;42.35;30.00;;;;;;;2.67;71.72;102179.22;4974008;28;20018;-69
2022/03/25 05:01:57;;;;;;;40.35;30.58;;;;;;;2.69;71.66;102179.16;4955877;28;20743;-69
2022/03/25 05:04:23;;;;;;;39.70;30.10;;;;;;;2.75;72.00;102182.44;4971824;28;20293;-68
2022/03/25 05:06:48;;;;;;;38.30;29.80;;;;;;;2.74;71.72;102190.31;4971015;28;20078;-70
2022/03/25 05:09:14;;;;;;;40.08;29.90;;;;;;;2.68;72.17;102191.38;4990091;28;20018;-69
2022/03/25 05:11:39;;;;;;;40.10;30.35;;;;;;;2.67;71.72;102191.44;4988652;28;21053;-68
2022/03/25 05:14:05;;;;;;;40.53;30.10;;;;;;;2.65;72.06;102188.88;4955688;28;20478;-70
2022/03/25 05:16:30;;;;;;;42.17;29.42;;;;;;;2.53;72.38;102197.09;4970154;28;20021;-70
2022/03/25 05:18:55;;;;;;;38.05;29.58;;;;;;;2.52;72.40;102195.38;4971450;28;20021;-70
2022/03/25 05:21:21;;;;;;;38.22;29.25;;;;;;;2.62;72.30;102194.19;4997436;28;20022;-69
2022/03/25 05:23:46;;;;;;;39.00;29.48;;;;;;;2.65;72.30;102196.72;4972886;28;20045;-70
2022/03/25 05:26:12;;;;;;;45.38;31.58;;;;;;;2.64;72.21;102194.16;4972916;28;20999;-71
2022/03/25 05:28:37;;;;;;;43.75;30.33;;;;;;;2.46;72.62;102200.81;4992264;28;20475;-71
2022/03/25 05:31:03;;;;;;;43.38;29.58;;;;;;;2.79;72.24;102209.31;4969797;28;20148;-71
2022/03/25 05:33:28;;;;;;;42.38;28.58;;;;;;;2.84;71.34;102198.72;4941938;28;20395;-70
2022/03/25 05:35:53;;;;;;;41.47;29.30;;;;;;;2.67;71.87;102200.13;4965509;28;20021;-71
2022/03/25 05:38:19;;;;;;;41.97;30.40;;;;;;;2.62;72.17;102204.63;4990330;28;20026;-71
2022/03/25 05:40:44;;;;;;;39.80;29.98;;;;;;;2.51;72.39;102198.91;4954793;28;20909;-72
2022/03/25 05:43:10;;;;;;;39.55;29.27;;;;;;;2.47;72.69;102210.34;4955589;28;20028;-71
2022/03/25 05:45:35;;;;;;;43.17;30.25;;;;;;;2.40;72.86;102212.31;4953861;28;20020;-70
2022/03/25 05:48:00;;;;;;;38.75;30.05;;;;;;;2.45;73.04;102209.56;4952755;28;20761;-70
2022/03/25 05:50:26;;;;;;;42.88;30.38;;;;;;;2.43;73.02;102219.22;4954356;28;20846;-70
2022/03/25 05:52:51;;;;;;;44.33;30.60;;;;;;;2.43;73.02;102207.00;4973067;28;20017;-73
2022/03/25 05:55:17;;;;;;;41.83;30.10;;;;;;;2.43;73.46;102227.03;4992474;28;20010;-70
2022/03/25 05:57:42;;;;;;;42.25;30.20;;;;;;;2.44;73.26;102228.72;4954897;28;20022;-71
2022/03/25 06:00:11;;;;;;;39.83;28.42;;;;;;;2.59;73.04;102225.63;4975440;28;20124;-71
2022/03/25 06:02:36;;;;;;;40.53;30.25;;;;;;;2.66;72.87;102223.69;4977334;28;20988;-71
2022/03/25 06:05:02;;;;;;;41.35;30.20;;;;;;;2.90;72.09;102232.50;4981287;28;20036;-71
2022/03/25 06:07:35;;;;;;;42.30;29.35;;;;;;;2.78;72.58;102232.88;4969938;28;20102;-71
2022/03/25 06:10:00;;;;;;;38.95;29.17;;;;;;;2.79;72.67;102234.59;4938709;28;20042;-70
2022/03/25 06:12:25;;;;;;;41.75;30.05;;;;;;;2.83;72.62;102228.38;4969869;28;20025;-71
2022/03/25 06:14:51;;;;;;;47.00;29.88;;;;;;;2.82;73.22;102229.28;4977089;28;20018;-71
2022/03/25 06:17:16;;;;;;;44.40;29.52;;;;;;;2.96;72.86;102220.97;4990972;28;20018;-71
2022/03/25 06:19:42;;;;;;;38.80;29.00;;;;;;;3.02;72.79;102226.03;4956750;28;20116;-71
2022/03/25 06:22:07;;;;;;;39.65;28.88;;;;;;;3.17;72.40;102228.09;4975633;28;20315;-71
2022/03/25 06:24:32;;;;;;;40.08;30.52;;;;;;;3.22;72.33;102225.34;4960563;28;20617;-72
2022/03/25 06:26:58;;;;;;;39.47;29.05;;;;;;;3.30;72.26;102232.91;4953422;28;20029;-73
2022/03/25 06:29:23;;;;;;;38.00;28.40;;;;;;;3.42;71.59;102233.34;4972730;28;20023;-70
2022/03/25 06:31:48;;;;;;;37.20;27.77;;;;;;;3.41;71.47;102229.03;4968226;28;20022;-70
2022/03/25 06:34:20;;;;;;;40.65;29.95;;;;;;;3.53;71.27;102225.13;4960930;28;20002;-70
2022/03/25 06:36:45;;;;;;;39.10;28.48;;;;;;;3.60;71.65;102229.22;4961670;28;20360;-70
2022/03/25 06:39:11;;;;;;;39.40;29.10;;;;;;;3.79;71.11;102239.03;4974599;28;20018;-70
2022/03/25 06:41:36;;;;;;;39.83;29.27;;;;;;;3.87;70.67;102241.38;4958487;28;20015;-71
2022/03/25 06:44:02;;;;;;;47.92;30.33;;;;;;;3.93;70.81;102238.53;4972805;28;20014;-71
2022/03/25 06:46:27;;;;;;;38.55;28.85;;;;;;;4.02;70.63;102238.19;4976276;28;20331;-71
2022/03/25 06:48:53;;;;;;;36.28;28.70;;;;;;;4.02;70.87;102239.94;4959636;28;20025;-72
2022/03/25 06:51:18;;;;;;;43.00;29.52;;;;;;;4.17;70.27;102238.53;4971179;28;20878;-72
2022/03/25 06:53:44;;;;;;;38.08;27.85;;;;;;;4.29;70.41;102235.44;4951502;28;20157;-71
2022/03/25 06:56:10;;;;;;;36.80;28.35;;;;;;;4.41;70.24;102242.84;4974830;28;20236;-71
2022/03/25 06:58:37;;;;;;;36.42;27.70;;;;;;;4.65;68.80;102240.13;4961869;28;20325;-71
2022/03/25 07:01:03;;;;;;;38.03;28.33;;;;;;;4.68;68.82;102237.38;4958655;28;20113;-71
2022/03/25 07:03:28;;;;;;;42.63;29.17;;;;;;;4.93;66.74;102246.91;4941441;28;20041;-71
2022/03/25 07:05:54;;;;;;;41.88;28.60;;;;;;;5.10;66.72;102241.78;4993541;28;20100;-71
2022/03/25 07:08:21;;;;;;;43.25;29.05;;;;;;;5.30;65.37;102247.97;4958205;28;20020;-71
2022/03/25 07:10:47;;;;;;;39.28;29.10;;;;;;;5.48;65.85;102243.72;4973636;28;20026;-70
2022/03/25 07:13:12;;;;;;;41.55;29.27;;;;;;;5.63;65.39;102236.94;4976009;28;20422;-71
2022/03/25 07:15:38;;;;;;;41.33;29.65;;;;;;;5.79;64.67;102245.00;4956866;28;20014;-72
2022/03/25 07:18:03;;;;;;;41.78;30.45;;;;;;;5.93;64.61;102253.09;4961192;28;20736;-73
2022/03/25 07:20:29;;;;;;;40.10;28.50;;;;;;;6.10;64.22;102247.09;4987354;28;20030;-70
2022/03/25 07:22:54;;;;;;;45.10;29.23;;;;;;;6.30;63.70;102245.34;4991437;28;20051;-71
2022/03/25 07:25:20;;;;;;;37.63;28.45;;;;;;;6.49;62.88;102246.16;4948730;28;20021;-71
2022/03/25 07:27:46;;;;;;;39.58;29.92;;;;;;;6.63;62.06;102247.31;4974254;28;20017;-70
2022/03/25 07:30:12;;;;;;;42.35;31.35;;;;;;;6.64;60.91;102252.50;4977907;28;20045;-72
2022/03/25 07:32:38;;;;;;;39.90;30.02;;;;;;;6.85;61.13;102260.25;4936083;28;20030;-70
2022/03/25 07:35:04;;;;;;;41.53;30.33;;;;;;;6.93;60.55;102260.72;4938272;28;20338;-71
2022/03/25 07:37:29;;;;;;;45.08;30.70;;;;;;;7.07;59.51;102256.56;4973712;28;20141;-71
2022/03/25 07:39:54;;;;;;;40.55;29.80;;;;;;;7.14;58.89;102250.91;4971103;28;20106;-70
2022/03/25 07:42:20;;;;;;;43.33;32.08;;;;;;;7.27;58.58;102253.78;4940826;28;20282;-70
2022/03/25 07:44:46;;;;;;;45.17;32.40;;;;;;;7.38;58.31;102264.59;4947006;28;20019;-71
2022/03/25 07:47:13;;;;;;;40.63;32.13;;;;;;;7.53;57.76;102270.88;4956682;28;20036;-71
2022/03/25 07:49:39;;;;;;;45.78;33.20;;;;;;;7.63;58.32;102266.00;4974981;28;20326;-71
2022/03/25 07:52:06;;;;;;;43.03;32.13;;;;;;;7.79;58.02;102267.81;4992511;28;20423;-68
2022/03/25 07:54:32;;;;;;;41.70;31.73;;;;;;;7.89;57.02;102267.22;4954462;28;20097;-71
2022/03/25 07:56:58;;;;;;;44.67;32.08;;;;;;;8.04;57.12;102270.00;4958416;28;20996;-73
2022/03/25 07:59:28;;;;;;;40.63;32.45;;;;;;;8.06;55.93;102263.69;4958924;28;20018;-70
2022/03/25 08:01:54;;;;;;;46.42;32.90;;;;;;;8.23;55.46;102262.81;4958529;28;20121;-71
2022/03/25 08:04:21;;;;;;;42.67;32.85;;;;;;;8.36;55.41;102262.09;4972721;28;20049;-71
2022/03/25 08:06:46;;;;;;;48.03;34.30;;;;;;;8.46;55.18;102268.63;4978292;28;20026;-70
2022/03/25 08:09:12;;;;;;;43.40;32.70;;;;;;;8.69;54.70;102279.69;4957059;28;20021;-71
2022/03/25 08:11:37;;;;;;;41.50;32.63;;;;;;;8.77;54.14;102273.03;4987073;28;20028;-71
2022/03/25 08:14:02;;;;;;;41.50;32.00;;;;;;;8.94;54.69;102274.69;4981206;28;20010;-71
2022/03/25 08:16:28;;;;;;;45.88;32.92;;;;;;;9.09;53.21;102275.59;4976510;28;20010;-71
2022/03/25 08:18:53;;;;;;;51.00;33.08;;;;;;;9.17;53.07;102272.50;4978376;28;20110;-70
2022/03/25 08:21:18;;;;;;;44.40;31.67;;;;;;;9.20;52.79;102276.75;4974545;28;20498;-71
2022/03/25 08:29:12;;;;;;;44.88;33.50;;;;;;;9.69;52.31;102283.56;4976736;28;20092;-70
2022/03/25 08:31:37;;;;;;;42.25;32.97;;;;;;;9.79;51.78;102279.41;4977625;28;20985;-72
2022/03/25 08:34:03;;;;;;;43.47;32.00;;;;;;;10.12;51.39;102279.13;4973584;28;20026;-71
2022/03/25 08:36:28;;;;;;;47.92;33.33;;;;;;;10.15;50.96;102280.69;4958699;28;20056;-70
2022/03/25 08:38:54;;;;;;;44.70;32.42;;;;;;;10.31;50.79;102283.25;4955174;28;20801;-70
2022/03/25 08:41:19;;;;;;;46.95;34.05;;;;;;;10.56;49.94;102293.16;4953277;28;20788;-71
2022/03/25 08:43:47;;;;;;;42.67;33.85;;;;;;;10.72;49.11;102278.94;4958902;28;20582;-70
2022/03/25 08:46:12;;;;;;;45.35;33.50;;;;;;;10.88;49.36;102279.63;4958814;28;20106;-71
2022/03/25 08:48:38;;;;;;;44.08;32.83;;;;;;;11.17;48.45;102284.78;4967303;28;20026;-70
2022/03/25 08:51:04;;;;;;;51.53;34.15;;;;;;;11.42;49.01;102277.81;4980620;28;20018;-72
2022/03/25 08:53:29;;;;;;;46.08;33.35;;;;;;;11.65;47.16;102279.75;4972286;28;20013;-71
2022/03/25 08:55:54;;;;;;;44.53;32.88;;;;;;;11.81;45.33;102273.38;4976171;28;20829;-72
2022/03/25 08:58:20;;;;;;;53.97;32.08;;;;;;;12.16;45.96;102278.03;4985834;28;20339;-71
2022/03/25 09:00:45;;;;;;;45.65;32.17;;;;;;;12.65;45.87;102274.50;4956100;28;20512;-72
2022/03/25 09:03:11;;;;;;;45.70;30.98;;;;;;;13.08;45.51;102274.91;4953325;28;20383;-71
2022/03/25 09:05:36;;;;;;;46.30;31.73;;;;;;;13.31;43.30;102276.69;4978564;28;20022;-71
2022/03/25 09:08:02;;;;;;;48.88;33.05;;;;;;;13.59;43.49;102271.91;4944161;28;20021;-72
2022/03/25 09:10:27;;;;;;;44.15;32.42;;;;;;;13.87;43.27;102270.59;4973992;28;20752;-71
2022/03/25 09:12:52;;;;;;;43.88;31.88;;;;;;;14.21;41.66;102275.06;4975154;28;20583;-72
2022/03/25 09:15:18;;;;;;;46.88;31.75;;;;;;;14.54;41.29;102282.16;4955091;28;20037;-71
2022/03/25 09:17:46;;;;;;;44.47;31.95;;;;;;;14.99;41.13;102283.84;4983450;28;20937;-72
2022/03/25 09:20:13;;;;;;;42.92;31.05;;;;;;;15.22;39.53;102281.06;4954960;28;20232;-72
2022/03/25 09:22:38;;;;;;;43.33;30.63;;;;;;;15.57;39.28;102269.22;4958276;28;20033;-71
2022/03/25 09:25:04;;;;;;;38.60;29.77;;;;;;;15.78;39.13;102278.03;4957905;28;20945;-72
2022/03/25 09:27:30;;;;;;;43.78;31.48;;;;;;;16.03;38.65;102265.22;4968971;28;20078;-72
2022/03/25 09:29:55;;;;;;;46.75;30.95;;;;;;;16.27;38.21;102261.34;4994540;28;20033;-73
2022/03/25 09:32:20;;;;;;;42.35;29.67;;;;;;;16.71;38.34;102266.34;4975184;28;20967;-72
2022/03/25 09:37:30;;;;;;;;;;;;;;;17.13;38.14;102264.28;4961517;28;20048;-71
2022/03/25 09:39:55;;;;;;;41.10;27.83;;;;;;;17.34;36.25;102261.41;4973878;28;20504;-71
2022/03/25 09:42:20;;;;;;;40.20;26.77;;;;;;;17.57;36.66;102266.44;4954691;28;20390;-72
2022/03/25 09:44:46;;;;;;;36.35;27.15;;;;;;;17.75;36.34;102255.78;4972987;28;20018;-72
2022/03/25 09:47:14;;;;;;;34.20;25.20;;;;;;;17.96;34.48;102260.09;4977466;28;20845;-72
2022/03/25 09:49:40;;;;;;;29.55;20.48;;;;;;;18.53;35.44;102262.59;4961177;28;20006;-72
2022/03/25 09:52:05;;;;;;;18.45;10.77;;;;;;;19.46;31.39;102258.66;4968113;28;20028;-71
2022/03/25 09:54:31;;;;;;;13.38;5.60;;;;;;;19.17;31.30;102257.13;4975942;28;20564;-72
2022/03/25 09:56:56;;;;;;;12.68;5.93;;;;;;;19.67;31.25;102256.44;4979594;28;20014;-72
2022/03/25 09:59:22;;;;;;;13.18;5.47;;;;;;;20.04;29.83;102251.75;4965648;28;20224;-72
2022/03/25 10:01:47;;;;;;;13.18;5.07;;;;;;;20.79;29.61;102253.63;4961852;28;20093;-72
2022/03/25 10:04:37;;;;;;;10.30;4.47;;;;;;;20.48;28.05;102251.53;4980930;28;20040;-71
2022/03/25 10:07:16;;;;;;;10.50;3.88;;;;;;;21.19;27.49;102268.06;4999623;28;20112;-72
2022/03/25 10:09:45;;;;;;;11.55;5.50;;;;;;;21.33;26.16;102257.63;4980169;28;20014;-71
2022/03/25 10:12:24;;;;;;;11.32;4.68;;;;;;;21.38;26.05;102260.66;4963995;28;20813;-72
2022/03/25 10:14:50;;;;;;;10.18;4.20;;;;;;;22.05;25.08;102252.16;4975637;28;20455;-71
2022/03/25 10:17:16;;;;;;;9.35;4.30;;;;;;;22.30;24.63;102260.97;4979210;28;20018;-72
2022/03/25 10:19:53;;;;;;;11.52;4.28;;;;;;;22.63;25.56;102255.41;4966047;28;20018;-72
2022/03/25 10:22:19;;;;;;;9.15;3.97;;;;;;;22.95;23.68;102255.31;4945642;28;20072;-72
2022/03/25 10:24:49;;;;;;;11.23;4.30;;;;;;;23.49;24.22;102259.69;4958077;28;20033;-73
2022/03/25 10:27:21;;;;;;;18.58;5.53;;;;;;;23.37;23.88;102266.59;4961374;28;20007;-71
2022/03/25 10:29:47;;;;;;;9.27;5.50;;;;;;;23.50;22.48;102255.97;4973287;28;20547;-72
2022/03/25 10:32:14;;;;;;;10.95;5.53;;;;;;;23.10;23.73;102255.34;4967516;28;20436;-72
2022/03/25 10:34:40;;;;;;;12.68;5.47;;;;;;;23.10;22.80;102258.88;4941486;28;20661;-72
2022/03/25 10:37:09;;;;;;;9.10;4.63;;;;;;;23.97;22.61;102257.47;4973349;28;20500;-73
2022/03/25 10:39:34;;;;;;;7.35;5.07;;;;;;;24.41;21.98;102252.09;4966041;28;20010;-72
2022/03/25 10:42:02;;;;;;;14.15;5.82;;;;;;;23.48;22.51;102258.84;4986264;28;20090;-72
2022/03/25 10:44:36;;;;;;;14.45;6.80;;;;;;;24.53;21.93;102253.28;4959788;28;20810;-72
2022/03/25 10:47:14;;;;;;;16.35;7.03;;;;;;;24.40;22.13;102264.00;4996813;28;20018;-72
2022/03/25 10:49:43;;;;;;;12.13;6.35;;;;;;;24.32;21.52;102252.25;5002048;28;20014;-72
2022/03/25 10:52:30;;;;;;;14.10;6.03;;;;;;;23.47;22.23;102259.88;4978764;28;20916;-72
2022/03/25 10:55:28;;;;;;;11.35;5.72;;;;;;;22.59;22.76;102253.22;4975688;28;20030;-71
2022/03/25 10:57:53;;;;;;;12.38;5.68;;;;;;;23.70;22.54;102271.63;4953868;28;20026;-72
2022/03/25 11:00:19;;;;;;;12.53;6.07;;;;;;;24.52;23.09;102241.63;4987169;28;20480;-72
2022/03/25 11:02:45;;;;;;;13.70;5.85;;;;;;;24.57;22.86;102243.75;4971450;28;20025;-72
2022/03/25 11:05:14;;;;;;;9.82;5.65;;;;;;;25.53;22.48;102240.56;4987040;28;20038;-72
2022/03/25 11:07:43;;;;;;;13.32;5.88;;;;;;;25.77;21.13;102235.66;5003294;28;20510;-72
2022/03/25 11:10:09;;;;;;;10.10;6.03;;;;;;;26.11;20.27;102241.25;4975902;28;20076;-72
2022/03/25 11:12:36;;;;;;;16.50;5.15;;;;;;;26.22;19.83;102251.50;4943689;28;20038;-72
2022/03/25 11:15:04;;;;;;;14.38;5.65;;;;;;;26.86;20.51;102243.88;4952846;28;20006;-72
2022/03/25 11:17:33;;;;;;;12.50;6.10;;;;;;;26.23;19.78;102245.88;4971459;28;20940;-71
2022/03/25 11:19:59;;;;;;;11.30;6.22;;;;;;;25.94;20.01;102241.56;4978070;28;20098;-72